Главная страница
METAR-TAF:

METAR-TAF

Аэропорты :

Lancaster Airport

Ланкастер, Пенсильвания, США

широта: 40-07-13N, долгота: 076-17-40W, высота над уровнем моря: 123 м

Текущие метеонаблюдения

Эта сводка был подготовлена 22 минут назад, в 14:34 UTC
Ветер 4 Узел от северо-западный
Температура 28°C
Влажность 70%
Давление 1021 hPa
Видимость: 16.1 км
Рассеянная облачность на высоте 2000 фута

METAR: KLNS 091434Z 31004KT 10SM BKN020 28/22 A3014 RMK AO2 T02780217

Время: 10:56 (14:56 UTC)

Прогноз

Эта сводка был подготовлена 3 часа и 28 минут назад, в 11:28 UTC
Прогноз действительный с 09-го 12 UTC до 10-го 12 UTC
Ветер Узел от северный
Видимость: 6.4 км
Отдельные облака на высоте 7000 фута
дымка
С 09-го 1300 UTC
Ветер 5 Узел от западный-юго-западный
Видимость: 10 км
Отдельные облака на высоте 7000 фута

TAF: KLNS 091128Z 0912/1012 00000KT 4SM BR SCT070 FM091300 24005KT P6SM SCT070

Метеонаблюдения и прогнозы для более 4000 аэропортов (сводки METAR и TAF).

Имеющиеся станции представлены на карте желтыми и красными точками.

Чтобы увидеть название станции, наведите на нее мышь.

Затем щелкните, чтобы увидеть метеонаблюдения и метеопрогнозы.

Управление картой: чтобы увеличить масштаб, щелкните зеленые кнопки с черным крестиком; чтобы уменьшить масштаб, щелкните зеленую кнопку с тире; для просмотра соседних карт щелкайте зеленые стрелки.


METAR-TAF: